Time;durP1;ratioP1;P1;durP2;ratioP2;P2;SDS_P1;SDS_P2;PMS_P1;PMS_P2;Temp;Humidity;BMP_temperature;BMP_pressure;BME280_temperature;BME280_humidity;BME280_pressure;Samples;Min_cycle;Max_cycle;Signal;HPM_P1;HPM_P2
2023/11/24 00:02:06;;;;;;;;;;;;;;;;;;2207875;59;2426;-75
2023/11/24 00:04:37;;;;;;;;;;;;;;;;;;2206527;59;1749;-75
2023/11/24 00:07:07;;;;;;;;;;;;;;;;;;2209206;66;2000;-75
2023/11/24 00:09:38;;;;;;;;;;;;;;;;;;2207416;59;1937;-75
2023/11/24 00:12:08;;;;;;;;;;;;;;;;;;2208706;67;1274;-75
2023/11/24 00:14:38;;;;;;;;;;;;;;;;;;2206563;67;1625;-75
2023/11/24 00:17:09;;;;;;;;;;;;;;;;;;2207648;67;1489;-76
2023/11/24 00:19:39;;;;;;;;;;;;;;;;;;2208775;67;1291;-76
2023/11/24 00:22:10;;;;;;;;;;;;;;;;;;2208677;67;1949;-75
2023/11/24 00:24:42;;;;;;;;;;;;;;;;;;2207358;67;1225;-76
2023/11/24 00:27:12;;;;;;;;;;;;;;;;;;2206811;59;1892;-76
2023/11/24 00:29:42;;;;;;;;;;;;;;;;;;2206527;59;2171;-75
2023/11/24 00:32:14;;;;;;;;;;;;;;;;;;2208931;59;1290;-75
2023/11/24 00:34:44;;;;;;;;;;;;;;;;;;2216115;67;997;-75
2023/11/24 00:37:14;;;;;;;;;;;;;;;;;;2207207;59;1252;-76
2023/11/24 00:39:45;;;;;;;;;;;;;;;;;;2207880;59;1192;-75
2023/11/24 00:42:16;;;;;;;;;;;;;;;;;;2207172;59;1927;-76
2023/11/24 00:44:46;;;;;;;;;;;;;;;;;;2206981;67;1324;-75
2023/11/24 00:47:19;;;;;;;;;;;;;;;;;;2207853;67;1176;-76
2023/11/24 00:49:50;;;;;;;;;;;;;;;;;;2208483;67;1000;-76
2023/11/24 00:52:20;;;;;;;;;;;;;;;;;;2207715;67;974;-75
2023/11/24 00:54:50;;;;;;;;;;;;;;;;;;2208527;67;1278;-76
2023/11/24 00:57:21;;;;;;;;;;;;;;;;;;2207304;67;1159;-75
2023/11/24 00:59:51;;;;;;;;;;;;;;;;;;2208641;67;1313;-76
2023/11/24 01:02:22;;;;;;;;;;;;;;;;;;2208084;59;2476;-75
2023/11/24 01:05:00;;;;;;;;;;;;;;;;;;2207855;59;1375;-76
2023/11/24 01:07:30;;;;;;;;;;;;;;;;;;2207066;59;2123;-75
2023/11/24 01:10:00;;;;;;;;;;;;;;;;;;2208091;67;1480;-76
2023/11/24 01:12:31;;;;;;;;;;;;;;;;;;2208295;67;1838;-75
2023/11/24 01:15:01;;;;;;;;;;;;;;;;;;2209163;67;1655;-76
2023/11/24 01:17:32;;;;;;;;;;;;;;;;;;2208222;67;1322;-76
2023/11/24 01:20:03;;;;;;;;;;;;;;;;;;2208431;67;1278;-76
2023/11/24 01:22:33;;;;;;;;;;;;;;;;;;2206350;67;1934;-76
2023/11/24 01:25:04;;;;;;;;;;;;;;;;;;2209114;59;1261;-75
2023/11/24 01:27:35;;;;;;;;;;;;;;;;;;2206945;59;1429;-75
2023/11/24 01:30:07;;;;;;;;;;;;;;;;;;2206459;59;2591;-76
2023/11/24 01:32:37;;;;;;;;;;;;;;;;;;2206620;59;1319;-76
2023/11/24 01:35:08;;;;;;;;;;;;;;;;;;2209661;67;1309;-75
2023/11/24 01:37:38;;;;;;;;;;;;;;;;;;2206498;59;1492;-75
2023/11/24 01:40:10;;;;;;;;;;;;;;;;;;2208898;59;1346;-75
2023/11/24 01:42:40;;;;;;;;;;;;;;;;;;2207149;67;1928;-75
2023/11/24 01:45:11;;;;;;;;;;;;;;;;;;2209407;59;1369;-75
2023/11/24 01:47:41;;;;;;;;;;;;;;;;;;2207461;59;1370;-75
2023/11/24 01:50:11;;;;;;;;;;;;;;;;;;2209512;67;1556;-75
2023/11/24 01:52:42;;;;;;;;;;;;;;;;;;2207640;67;1194;-76
2023/11/24 01:55:13;;;;;;;;;;;;;;;;;;2209235;67;1017;-75
2023/11/24 01:57:43;;;;;;;;;;;;;;;;;;2208242;67;1443;-76
2023/11/24 02:00:15;;;;;;;;;;;;;;;;;;2209316;62;1234;-75
2023/11/24 02:02:45;;;;;;;;;;;;;;;;;;2207868;59;2364;-75
2023/11/24 02:05:18;;;;;;;;;;;;;;;;;;2207405;59;1372;-76
2023/11/24 02:07:49;;;;;;;;;;;;;;;;;;2208210;66;1501;-75
2023/11/24 02:10:20;;;;;;;;;;;;;;;;;;2208764;67;1176;-75
2023/11/24 02:12:51;;;;;;;;;;;;;;;;;;2207993;67;1575;-76
2023/11/24 02:15:21;;;;;;;;;;;;;;;;;;2208263;67;1147;-76
2023/11/24 02:17:52;;;;;;;;;;;;;;;;;;2207809;59;1221;-75
2023/11/24 02:20:24;;;;;;;;;;;;;;;;;;2208569;59;1237;-75
2023/11/24 02:22:54;;;;;;;;;;;;;;;;;;2208183;67;1920;-75
2023/11/24 02:25:25;;;;;;;;;;;;;;;;;;2208593;67;1088;-76
2023/11/24 02:27:55;;;;;;;;;;;;;;;;;;2207283;59;1979;-76
2023/11/24 02:30:25;;;;;;;;;;;;;;;;;;2207424;59;2368;-76
2023/11/24 02:32:56;;;;;;;;;;;;;;;;;;2208121;59;1398;-75
2023/11/24 02:35:28;;;;;;;;;;;;;;;;;;2206738;59;1293;-75
2023/11/24 02:37:59;;;;;;;;;;;;;;;;;;2209250;67;1268;-75
2023/11/24 02:40:29;;;;;;;;;;;;;;;;;;2208105;59;1444;-75
2023/11/24 02:43:00;;;;;;;;;;;;;;;;;;2208812;67;1988;-76
2023/11/24 02:45:30;;;;;;;;;;;;;;;;;;2207645;67;1283;-75
2023/11/24 02:48:00;;;;;;;;;;;;;;;;;;2207178;67;1281;-75
2023/11/24 02:50:30;;;;;;;;;;;;;;;;;;2207623;67;1161;-76
2023/11/24 02:53:04;;;;;;;;;;;;;;;;;;2204852;67;1341;-76
2023/11/24 02:55:35;;;;;;;;;;;;;;;;;;2207034;67;1579;-76
2023/11/24 02:58:05;;;;;;;;;;;;;;;;;;2208562;67;1519;-76
2023/11/24 03:00:36;;;;;;;;;;;;;;;;;;2207157;67;1068;-75
2023/11/24 03:03:07;;;;;;;;;;;;;;;;;;2206786;59;2448;-76
2023/11/24 03:05:37;;;;;;;;;;;;;;;;;;2206952;67;1423;-75
2023/11/24 03:08:08;;;;;;;;;;;;;;;;;;2207412;59;2333;-76
2023/11/24 03:10:39;;;;;;;;;;;;;;;;;;2208010;67;1633;-75
2023/11/24 03:13:09;;;;;;;;;;;;;;;;;;2209272;67;1540;-76
2023/11/24 03:15:42;;;;;;;;;;;;;;;;;;2209184;67;1537;-76
2023/11/24 03:18:16;;;;;;;;;;;;;;;;;;2208559;59;1705;-75
2023/11/24 03:20:47;;;;;;;;;;;;;;;;;;2208566;67;1426;-76
2023/11/24 03:23:18;;;;;;;;;;;;;;;;;;2208574;67;1935;-75
2023/11/24 03:25:48;;;;;;;;;;;;;;;;;;2208184;59;1473;-75
2023/11/24 03:28:19;;;;;;;;;;;;;;;;;;2209760;59;1988;-75
2023/11/24 03:30:50;;;;;;;;;;;;;;;;;;2208043;67;2399;-76
2023/11/24 03:33:21;;;;;;;;;;;;;;;;;;2209211;67;1773;-75
2023/11/24 03:35:51;;;;;;;;;;;;;;;;;;2207840;59;1661;-76
2023/11/24 03:38:21;;;;;;;;;;;;;;;;;;2208604;59;1566;-75
2023/11/24 03:40:54;;;;;;;;;;;;;;;;;;2207919;67;2213;-75
2023/11/24 03:43:25;;;;;;;;;;;;;;;;;;2208604;59;1929;-76
2023/11/24 03:45:56;;;;;;;;;;;;;;;;;;2207134;67;1640;-75
2023/11/24 03:48:30;;;;;;;;;;;;;;;;;;2209104;67;1391;-76
2023/11/24 03:51:00;;;;;;;;;;;;;;;;;;2209693;67;1909;-75
2023/11/24 03:53:36;;;;;;;;;;;;;;;;;;2208727;67;1405;-75
2023/11/24 03:56:07;;;;;;;;;;;;;;;;;;2208951;67;1402;-75
2023/11/24 03:58:39;;;;;;;;;;;;;;;;;;2205779;67;2080;-76
2023/11/24 04:01:13;;;;;;;;;;;;;;;;;;2207976;67;1418;-75
2023/11/24 04:03:46;;;;;;;;;;;;;;;;;;2207384;67;2486;-75
2023/11/24 04:06:17;;;;;;;;;;;;;;;;;;2207693;67;1022;-75
2023/11/24 04:08:48;;;;;;;;;;;;;;;;;;2205912;67;1472;-75
2023/11/24 04:11:18;;;;;;;;;;;;;;;;;;2206071;67;1240;-75
2023/11/24 04:13:48;;;;;;;;;;;;;;;;;;2206594;67;1352;-76
2023/11/24 04:16:19;;;;;;;;;;;;;;;;;;2207577;67;1381;-75
2023/11/24 04:18:49;;;;;;;;;;;;;;;;;;2205670;59;1284;-75
2023/11/24 04:21:19;;;;;;;;;;;;;;;;;;2208440;67;1448;-76
2023/11/24 04:23:49;;;;;;;;;;;;;;;;;;2205990;67;2018;-76
2023/11/24 04:26:20;;;;;;;;;;;;;;;;;;2208065;67;2145;-75
2023/11/24 04:28:50;;;;;;;;;;;;;;;;;;2206063;59;2218;-75
2023/11/24 04:31:21;;;;;;;;;;;;;;;;;;2208167;67;1431;-76
2023/11/24 04:33:53;;;;;;;;;;;;;;;;;;2208643;59;1259;-75
2023/11/24 04:36:23;;;;;;;;;;;;;;;;;;2207361;67;2411;-75
2023/11/24 04:38:53;;;;;;;;;;;;;;;;;;2208013;59;1755;-76
2023/11/24 04:41:24;;;;;;;;;;;;;;;;;;2208528;59;1611;-76
2023/11/24 04:43:55;;;;;;;;;;;;;;;;;;2206687;59;2333;-75
2023/11/24 04:46:25;;;;;;;;;;;;;;;;;;2208623;67;1499;-76
2023/11/24 04:48:56;;;;;;;;;;;;;;;;;;2206628;59;2198;-76
2023/11/24 04:51:32;;;;;;;;;;;;;;;;;;2208688;67;1328;-76
2023/11/24 04:54:03;;;;;;;;;;;;;;;;;;2206222;67;1378;-76
2023/11/24 04:56:36;;;;;;;;;;;;;;;;;;2207813;67;1491;-75
2023/11/24 04:59:06;;;;;;;;;;;;;;;;;;2209909;67;2168;-75
2023/11/24 05:01:36;;;;;;;;;;;;;;;;;;2206886;67;1397;-76
2023/11/24 05:04:07;;;;;;;;;;;;;;;;;;2210114;59;2342;-76
2023/11/24 05:06:37;;;;;;;;;;;;;;;;;;2208107;67;1772;-76
2023/11/24 05:09:07;;;;;;;;;;;;;;;;;;2208639;59;2078;-75
2023/11/24 05:11:38;;;;;;;;;;;;;;;;;;2208474;67;1314;-75
2023/11/24 05:14:08;;;;;;;;;;;;;;;;;;2209056;67;1537;-76
2023/11/24 05:16:39;;;;;;;;;;;;;;;;;;2208238;59;1453;-76
2023/11/24 05:19:09;;;;;;;;;;;;;;;;;;2208460;59;2300;-76
2023/11/24 05:21:40;;;;;;;;;;;;;;;;;;2203900;67;995;-76
2023/11/24 05:24:10;;;;;;;;;;;;;;;;;;2208055;67;1941;-76
2023/11/24 05:26:40;;;;;;;;;;;;;;;;;;2207279;59;1168;-76
2023/11/24 05:29:11;;;;;;;;;;;;;;;;;;2208882;59;2680;-75
2023/11/24 05:31:41;;;;;;;;;;;;;;;;;;2208637;59;1746;-76
2023/11/24 05:34:11;;;;;;;;;;;;;;;;;;2210007;59;1372;-75
2023/11/24 05:36:45;;;;;;;;;;;;;;;;;;2208772;67;1553;-76
2023/11/24 05:39:15;;;;;;;;;;;;;;;;;;2209948;59;1286;-75
2023/11/24 05:41:45;;;;;;;;;;;;;;;;;;2208483;59;1467;-75
2023/11/24 05:44:16;;;;;;;;;;;;;;;;;;2209878;59;1937;-75
2023/11/24 05:46:48;;;;;;;;;;;;;;;;;;2207926;59;1597;-76
2023/11/24 05:49:18;;;;;;;;;;;;;;;;;;2209336;59;1229;-76
2023/11/24 05:51:49;;;;;;;;;;;;;;;;;;2210742;59;1243;-76
2023/11/24 05:54:19;;;;;;;;;;;;;;;;;;2208830;67;1285;-76
2023/11/24 05:56:49;;;;;;;;;;;;;;;;;;2208241;67;1289;-76
2023/11/24 05:59:21;;;;;;;;;;;;;;;;;;2209607;67;1485;-76
2023/11/24 06:01:52;;;;;;;;;;;;;;;;;;2209240;59;1262;-76
2023/11/24 06:04:22;;;;;;;;;;;;;;;;;;2209503;67;2008;-76
2023/11/24 06:06:53;;;;;;;;;;;;;;;;;;2208868;67;1714;-76
2023/11/24 06:09:26;;;;;;;;;;;;;;;;;;2209195;59;1332;-76
2023/11/24 06:11:56;;;;;;;;;;;;;;;;;;2207918;67;1498;-76
2023/11/24 06:14:26;;;;;;;;;;;;;;;;;;2210018;67;1304;-76
2023/11/24 06:16:56;;;;;;;;;;;;;;;;;;2207793;67;1305;-76
2023/11/24 06:19:27;;;;;;;;;;;;;;;;;;2209602;59;1568;-75
2023/11/24 06:21:58;;;;;;;;;;;;;;;;;;2207962;67;1975;-76
2023/11/24 06:24:28;;;;;;;;;;;;;;;;;;2206790;67;1090;-76
2023/11/24 06:26:59;;;;;;;;;;;;;;;;;;2207786;59;2201;-75
2023/11/24 06:29:29;;;;;;;;;;;;;;;;;;2208035;59;2301;-76
2023/11/24 06:31:59;;;;;;;;;;;;;;;;;;2207452;59;2151;-76
2023/11/24 06:34:30;;;;;;;;;;;;;;;;;;2208532;59;1028;-76
2023/11/24 06:37:00;;;;;;;;;;;;;;;;;;2208621;59;1476;-75
2023/11/24 06:39:31;;;;;;;;;;;;;;;;;;2208260;59;1322;-76
2023/11/24 06:42:04;;;;;;;;;;;;;;;;;;2206310;59;1939;-76
2023/11/24 06:44:34;;;;;;;;;;;;;;;;;;2206119;59;1221;-75
2023/11/24 06:47:04;;;;;;;;;;;;;;;;;;2205735;59;1336;-75
2023/11/24 06:49:34;;;;;;;;;;;;;;;;;;2206181;67;1051;-75
2023/11/24 06:52:06;;;;;;;;;;;;;;;;;;2205859;67;1198;-76
2023/11/24 06:54:36;;;;;;;;;;;;;;;;;;2206436;67;994;-75
2023/11/24 06:57:07;;;;;;;;;;;;;;;;;;2205248;67;1293;-74
2023/11/24 06:59:37;;;;;;;;;;;;;;;;;;2208558;67;1464;-75
2023/11/24 07:02:07;;;;;;;;;;;;;;;;;;2207215;59;2361;-75
2023/11/24 07:04:38;;;;;;;;;;;;;;;;;;2206651;59;1323;-75
2023/11/24 07:07:08;;;;;;;;;;;;;;;;;;2205295;67;1167;-75
2023/11/24 07:09:38;;;;;;;;;;;;;;;;;;2206573;67;1105;-76
2023/11/24 07:12:12;;;;;;;;;;;;;;;;;;2206237;59;2441;-75
2023/11/24 07:14:42;;;;;;;;;;;;;;;;;;2205122;59;1212;-75
2023/11/24 07:17:12;;;;;;;;;;;;;;;;;;2207836;67;1235;-75
2023/11/24 07:19:43;;;;;;;;;;;;;;;;;;2206174;59;3046;-74
2023/11/24 07:22:13;;;;;;;;;;;;;;;;;;2206813;67;1905;-76
2023/11/24 07:24:44;;;;;;;;;;;;;;;;;;2205897;67;999;-75
2023/11/24 07:27:14;;;;;;;;;;;;;;;;;;2207419;59;1282;-76
2023/11/24 07:29:45;;;;;;;;;;;;;;;;;;2205697;59;2206;-76
2023/11/24 07:32:16;;;;;;;;;;;;;;;;;;2207279;59;2193;-75
2023/11/24 07:34:46;;;;;;;;;;;;;;;;;;2206216;59;1110;-74
2023/11/24 07:37:17;;;;;;;;;;;;;;;;;;2206060;67;1940;-75
2023/11/24 07:39:47;;;;;;;;;;;;;;;;;;2206389;59;1368;-75
2023/11/24 07:42:17;;;;;;;;;;;;;;;;;;2205407;67;1988;-76
2023/11/24 07:44:48;;;;;;;;;;;;;;;;;;2205368;59;1408;-76
2023/11/24 07:47:21;;;;;;;;;;;;;;;;;;2204058;67;1193;-75
2023/11/24 07:49:51;;;;;;;;;;;;;;;;;;2201237;59;1926;-76
2023/11/24 07:52:26;;;;;;;;;;;;;;;;;;2207728;59;1130;-76
2023/11/24 07:54:56;;;;;;;;;;;;;;;;;;2205910;59;1720;-75
2023/11/24 07:57:27;;;;;;;;;;;;;;;;;;2206516;59;1967;-76
2023/11/24 07:59:58;;;;;;;;;;;;;;;;;;2207182;59;2622;-76
2023/11/24 08:02:28;;;;;;;;;;;;;;;;;;2208484;67;1938;-76
2023/11/24 08:04:59;;;;;;;;;;;;;;;;;;2207949;59;2345;-76
2023/11/24 08:07:38;;;;;;;;;;;;;;;;;;2208973;59;1311;-76
2023/11/24 08:10:12;;;;;;;;;;;;;;;;;;2207969;67;1100;-76
2023/11/24 08:12:45;;;;;;;;;;;;;;;;;;2208056;59;2477;-76
2023/11/24 08:15:16;;;;;;;;;;;;;;;;;;2209137;67;1292;-76
2023/11/24 08:17:46;;;;;;;;;;;;;;;;;;2208813;59;1408;-76
2023/11/24 08:20:18;;;;;;;;;;;;;;;;;;2208010;59;2525;-76
2023/11/24 08:22:49;;;;;;;;;;;;;;;;;;2208252;59;2120;-76
2023/11/24 08:25:19;;;;;;;;;;;;;;;;;;2209364;59;1995;-76
2023/11/24 08:27:50;;;;;;;;;;;;;;;;;;2206420;59;2060;-76
2023/11/24 08:30:20;;;;;;;;;;;;;;;;;;2208004;59;1122;-75
2023/11/24 08:32:50;;;;;;;;;;;;;;;;;;2210680;59;2242;-76
2023/11/24 08:35:21;;;;;;;;;;;;;;;;;;2206968;59;2162;-76
2023/11/24 08:37:51;;;;;;;;;;;;;;;;;;2206339;59;1963;-76
2023/11/24 08:40:24;;;;;;;;;;;;;;;;;;2208355;59;1863;-76
2023/11/24 08:42:56;;;;;;;;;;;;;;;;;;2207083;59;2414;-76
2023/11/24 08:45:27;;;;;;;;;;;;;;;;;;2207593;59;1609;-76
2023/11/24 08:47:58;;;;;;;;;;;;;;;;;;2207063;59;1387;-76
2023/11/24 08:50:28;;;;;;;;;;;;;;;;;;2208712;67;1201;-76
2023/11/24 08:52:58;;;;;;;;;;;;;;;;;;2207954;59;1381;-77
2023/11/24 08:55:32;;;;;;;;;;;;;;;;;;2207469;67;2317;-76
2023/11/24 08:58:05;;;;;;;;;;;;;;;;;;2208466;59;1739;-77
2023/11/24 09:00:36;;;;;;;;;;;;;;;;;;2207880;67;1017;-75
2023/11/24 09:03:07;;;;;;;;;;;;;;;;;;2206074;59;2331;-76
2023/11/24 09:05:38;;;;;;;;;;;;;;;;;;2201724;59;1788;-75
2023/11/24 09:08:08;;;;;;;;;;;;;;;;;;2207275;59;2461;-76
2023/11/24 09:10:38;;;;;;;;;;;;;;;;;;2207795;59;1391;-76
2023/11/24 09:13:13;;;;;;;;;;;;;;;;;;2207726;59;1102;-75
2023/11/24 09:15:43;;;;;;;;;;;;;;;;;;2208248;59;1279;-76
2023/11/24 09:18:16;;;;;;;;;;;;;;;;;;2206736;59;1495;-75
2023/11/24 09:20:47;;;;;;;;;;;;;;;;;;2209533;67;1479;-76
2023/11/24 09:23:17;;;;;;;;;;;;;;;;;;2208773;67;1998;-75
2023/11/24 09:25:48;;;;;;;;;;;;;;;;;;2208341;59;1396;-76
2023/11/24 09:28:20;;;;;;;;;;;;;;;;;;2209257;59;4510;-77
2023/11/24 09:30:50;;;;;;;;;;;;;;;;;;2207618;59;3126;-75
2023/11/24 09:33:21;;;;;;;;;;;;;;;;;;2208515;59;1676;-76
2023/11/24 09:35:51;;;;;;;;;;;;;;;;;;2206524;59;2254;-76
2023/11/24 09:38:22;;;;;;;;;;;;;;;;;;2205618;59;2838;-76
2023/11/24 09:40:53;;;;;;;;;;;;;;;;;;2205316;59;1764;-76
2023/11/24 09:43:23;;;;;;;;;;;;;;;;;;2206692;59;1959;-76
2023/11/24 09:45:55;;;;;;;;;;;;;;;;;;2207156;67;1087;-76
2023/11/24 09:48:29;;;;;;;;;;;;;;;;;;2207083;59;2993;-76
2023/11/24 09:51:00;;;;;;;;;;;;;;;;;;2207587;59;2384;-76
2023/11/24 09:53:33;;;;;;;;;;;;;;;;;;2207352;59;1732;-76
2023/11/24 09:56:04;;;;;;;;;;;;;;;;;;2207659;59;1835;-75
2023/11/24 09:58:35;;;;;;;;;;;;;;;;;;2208724;67;1925;-76
2023/11/24 10:01:27;;;;;;;;;;;;;;;;;;2207878;59;2094;-76
2023/11/24 10:04:00;;;;;;;;;;;;;;;;;;2206032;59;2292;-76
2023/11/24 10:06:32;;;;;;;;;;;;;;;;;;2203157;59;2470;-75
2023/11/24 10:09:06;;;;;;;;;;;;;;;;;;2207298;59;1958;-76
2023/11/24 10:11:38;;;;;;;;;;;;;;;;;;2208707;59;1621;-76
2023/11/24 10:14:12;;;;;;;;;;;;;;;;;;2208486;59;1927;-75
2023/11/24 10:16:42;;;;;;;;;;;;;;;;;;2205914;59;2039;-75
2023/11/24 10:19:15;;;;;;;;;;;;;;;;;;2207266;59;2879;-76
2023/11/24 10:21:45;;;;;;;;;;;;;;;;;;2205785;59;2461;-75
2023/11/24 10:24:17;;;;;;;;;;;;;;;;;;2206797;59;2282;-76
2023/11/24 10:26:47;;;;;;;;;;;;;;;;;;2207220;59;1893;-75
2023/11/24 10:29:23;;;;;;;;;;;;;;;;;;2203778;59;2792;-75
2023/11/24 10:31:53;;;;;;;;;;;;;;;;;;2207059;59;1967;-76
2023/11/24 10:34:24;;;;;;;;;;;;;;;;;;2207448;59;1833;-74
2023/11/24 10:36:54;;;;;;;;;;;;;;;;;;2207010;59;1838;-76
2023/11/24 10:39:30;;;;;;;;;;;;;;;;;;2207489;59;2115;-77
2023/11/24 10:42:03;;;;;;;;;;;;;;;;;;2206522;59;2092;-75
2023/11/24 10:44:45;;;;;;;;;;;;;;;;;;2207362;59;2007;-75
2023/11/24 10:47:21;;;;;;;;;;;;;;;;;;2206039;59;2381;-75
2023/11/24 10:49:57;;;;;;;;;;;;;;;;;;2205933;59;2508;-75
2023/11/24 10:52:31;;;;;;;;;;;;;;;;;;2208777;59;1850;-75
2023/11/24 10:55:16;;;;;;;;;;;;;;;;;;2205197;67;1937;-76
2023/11/24 10:57:46;;;;;;;;;;;;;;;;;;2207190;59;1730;-75
2023/11/24 11:00:20;;;;;;;;;;;;;;;;;;2206678;59;1817;-76
2023/11/24 11:02:54;;;;;;;;;;;;;;;;;;2207998;59;1992;-76
2023/11/24 11:05:40;;;;;;;;;;;;;;;;;;2206884;59;1642;-76
2023/11/24 11:08:18;;;;;;;;;;;;;;;;;;2206171;59;2029;-75
2023/11/24 11:11:12;;;;;;;;;;;;;;;;;;2207693;59;2666;-75
2023/11/24 11:13:46;;;;;;;;;;;;;;;;;;2208353;59;2205;-77
2023/11/24 11:16:17;;;;;;;;;;;;;;;;;;2208288;59;2075;-78
2023/11/24 11:18:48;;;;;;;;;;;;;;;;;;2205354;59;2209;-77
2023/11/24 11:21:19;;;;;;;;;;;;;;;;;;2207767;59;2087;-77
2023/11/24 11:23:56;;;;;;;;;;;;;;;;;;2209404;59;2128;-78
2023/11/24 11:26:45;;;;;;;;;;;;;;;;;;2207916;59;1967;-77
2023/11/24 11:29:28;;;;;;;;;;;;;;;;;;2211303;59;2133;-77
2023/11/24 11:32:01;;;;;;;;;;;;;;;;;;2208069;59;2057;-77
2023/11/24 11:34:31;;;;;;;;;;;;;;;;;;2208267;59;2088;-77
2023/11/24 11:37:07;;;;;;;;;;;;;;;;;;2207454;59;1996;-77
2023/11/24 11:39:44;;;;;;;;;;;;;;;;;;2209883;59;2090;-78
2023/11/24 11:42:14;;;;;;;;;;;;;;;;;;2208197;59;2405;-78
2023/11/24 11:44:49;;;;;;;;;;;;;;;;;;2209573;59;2257;-78
2023/11/24 11:47:26;;;;;;;;;;;;;;;;;;2207576;59;2249;-78
2023/11/24 11:50:02;;;;;;;;;;;;;;;;;;2207891;59;2842;-77
2023/11/24 11:52:35;;;;;;;;;;;;;;;;;;2207579;59;1754;-77
2023/11/24 11:55:05;;;;;;;;;;;;;;;;;;2207389;60;1763;-77
2023/11/24 11:57:36;;;;;;;;;;;;;;;;;;2209051;67;1556;-78
2023/11/24 12:00:10;;;;;;;;;;;;;;;;;;2204632;59;1845;-77
2023/11/24 12:02:46;;;;;;;;;;;;;;;;;;2207819;59;2317;-77
2023/11/24 12:05:18;;;;;;;;;;;;;;;;;;2208161;59;1805;-77
2023/11/24 12:07:49;;;;;;;;;;;;;;;;;;2209052;59;3513;-77
2023/11/24 12:10:20;;;;;;;;;;;;;;;;;;2209037;59;3345;-77
2023/11/24 12:12:51;;;;;;;;;;;;;;;;;;2208606;67;2566;-78
2023/11/24 12:15:23;;;;;;;;;;;;;;;;;;2207602;59;2548;-78
2023/11/24 12:17:56;;;;;;;;;;;;;;;;;;2208908;59;1860;-77
2023/11/24 12:20:27;;;;;;;;;;;;;;;;;;2208330;67;2337;-77
2023/11/24 12:22:59;;;;;;;;;;;;;;;;;;2208748;59;1932;-78
2023/11/24 12:25:30;;;;;;;;;;;;;;;;;;2207814;59;2314;-77
2023/11/24 12:28:09;;;;;;;;;;;;;;;;;;2207552;59;2162;-78
2023/11/24 12:30:43;;;;;;;;;;;;;;;;;;2209344;59;2468;-78
2023/11/24 12:33:20;;;;;;;;;;;;;;;;;;2206924;59;2559;-77
2023/11/24 12:35:51;;;;;;;;;;;;;;;;;;2208312;59;1806;-78
2023/11/24 12:38:22;;;;;;;;;;;;;;;;;;2206443;59;1801;-77
2023/11/24 12:40:55;;;;;;;;;;;;;;;;;;2209734;59;1683;-78
2023/11/24 12:43:32;;;;;;;;;;;;;;;;;;2208485;59;1999;-78
2023/11/24 12:46:02;;;;;;;;;;;;;;;;;;2209505;67;1105;-78
2023/11/24 12:48:39;;;;;;;;;;;;;;;;;;2209703;67;1155;-78
2023/11/24 12:51:10;;;;;;;;;;;;;;;;;;2207950;59;2636;-78
2023/11/24 12:53:41;;;;;;;;;;;;;;;;;;2206393;59;2400;-78
2023/11/24 12:56:11;;;;;;;;;;;;;;;;;;2208061;59;1784;-77
2023/11/24 12:58:54;;;;;;;;;;;;;;;;;;2205782;59;1854;-77
2023/11/24 13:01:30;;;;;;;;;;;;;;;;;;2211021;59;1674;-78
2023/11/24 13:04:03;;;;;;;;;;;;;;;;;;2209098;59;2515;-77
2023/11/24 13:06:36;;;;;;;;;;;;;;;;;;2208999;59;2514;-77
2023/11/24 13:09:09;;;;;;;;;;;;;;;;;;2208676;59;2207;-78
2023/11/24 13:11:39;;;;;;;;;;;;;;;;;;2208364;67;1899;-77
2023/11/24 13:14:16;;;;;;;;;;;;;;;;;;2208868;67;2098;-77
2023/11/24 13:16:48;;;;;;;;;;;;;;;;;;2206412;59;1974;-77
2023/11/24 13:19:19;;;;;;;;;;;;;;;;;;2207216;59;2144;-78
2023/11/24 13:21:56;;;;;;;;;;;;;;;;;;2208829;59;2406;-79
2023/11/24 13:24:28;;;;;;;;;;;;;;;;;;2208853;59;2200;-78
2023/11/24 13:26:58;;;;;;;;;;;;;;;;;;2208209;59;2561;-78
2023/11/24 13:29:28;;;;;;;;;;;;;;;;;;2207324;59;2310;-79
2023/11/24 13:31:59;;;;;;;;;;;;;;;;;;2209234;59;1945;-77
2023/11/24 13:34:29;;;;;;;;;;;;;;;;;;2208077;59;2100;-78
2023/11/24 13:37:01;;;;;;;;;;;;;;;;;;2207666;59;2092;-77
2023/11/24 13:39:32;;;;;;;;;;;;;;;;;;2206668;59;2044;-77
2023/11/24 13:42:03;;;;;;;;;;;;;;;;;;2206951;59;2084;-78
2023/11/24 13:44:34;;;;;;;;;;;;;;;;;;2207444;59;2399;-78
2023/11/24 13:47:12;;;;;;;;;;;;;;;;;;2208944;59;1795;-78
2023/11/24 13:49:46;;;;;;;;;;;;;;;;;;2209539;59;1624;-77
2023/11/24 13:52:17;;;;;;;;;;;;;;;;;;2201066;59;2275;-77
2023/11/24 13:54:47;;;;;;;;;;;;;;;;;;2208556;59;2571;-77
2023/11/24 13:57:19;;;;;;;;;;;;;;;;;;2206456;59;1914;-77
2023/11/24 13:59:49;;;;;;;;;;;;;;;;;;2208175;59;1759;-77
2023/11/24 14:02:26;;;;;;;;;;;;;;;;;;2206720;59;2448;-77
2023/11/24 14:04:57;;;;;;;;;;;;;;;;;;2207136;67;2030;-77
2023/11/24 14:07:28;;;;;;;;;;;;;;;;;;2205640;59;2478;-77
2023/11/24 14:09:58;;;;;;;;;;;;;;;;;;2205521;59;2202;-78
2023/11/24 14:12:33;;;;;;;;;;;;;;;;;;2205830;59;2441;-77
2023/11/24 14:15:04;;;;;;;;;;;;;;;;;;2206778;59;1750;-77
2023/11/24 14:17:52;;;;;;;;;;;;;;;;;;2207504;59;1861;-78
2023/11/24 14:20:25;;;;;;;;;;;;;;;;;;2206403;59;1944;-77
2023/11/24 14:22:55;;;;;;;;;;;;;;;;;;2207573;59;1942;-77
2023/11/24 14:25:25;;;;;;;;;;;;;;;;;;2205194;59;2142;-77
2023/11/24 14:27:56;;;;;;;;;;;;;;;;;;2203333;59;1884;-77
2023/11/24 14:30:34;;;;;;;;;;;;;;;;;;2206811;59;2469;-77
2023/11/24 14:33:04;;;;;;;;;;;;;;;;;;2207943;59;1827;-77
2023/11/24 14:35:35;;;;;;;;;;;;;;;;;;2206906;59;1951;-77
2023/11/24 14:38:05;;;;;;;;;;;;;;;;;;2205228;59;1957;-77
2023/11/24 14:40:42;;;;;;;;;;;;;;;;;;2206999;59;2341;-77
2023/11/24 14:43:14;;;;;;;;;;;;;;;;;;2201866;59;1937;-78
2023/11/24 14:45:46;;;;;;;;;;;;;;;;;;2207568;59;1877;-77
2023/11/24 14:48:16;;;;;;;;;;;;;;;;;;2202433;59;2823;-77
2023/11/24 14:50:47;;;;;;;;;;;;;;;;;;2204896;59;1807;-77
2023/11/24 14:53:19;;;;;;;;;;;;;;;;;;2205519;59;2066;-77
2023/11/24 14:55:52;;;;;;;;;;;;;;;;;;2203418;59;2582;-77
2023/11/24 14:58:23;;;;;;;;;;;;;;;;;;2205929;59;1975;-77
2023/11/24 15:00:56;;;;;;;;;;;;;;;;;;2203911;59;1923;-77
2023/11/24 15:03:37;;;;;;;;;;;;;;;;;;2206749;59;2350;-77
2023/11/24 15:06:14;;;;;;;;;;;;;;;;;;2205495;59;2275;-77
2023/11/24 15:09:03;;;;;;;;;;;;;;;;;;2207629;59;2276;-77
2023/11/24 15:11:48;;;;;;;;;;;;;;;;;;;;;
2023/11/24 15:14:36;;;;;;;;;;;;;;;;;;2216777;59;1980;-81
2023/11/24 15:17:16;;;;;;;;;;;;;;;;;;2212508;59;1613;-80
2023/11/24 15:19:57;;;;;;;;;;;;;;;;;;2218285;59;1830;-79
2023/11/24 15:22:41;;;;;;;;;;;;;;;;;;2214278;59;1912;-81
2023/11/24 15:25:19;;;;;;;;;;;;;;;;;;2214022;59;1781;-80
2023/11/24 15:28:11;;;;;;;;;;;;;;;;;;2213747;59;2293;-81
2023/11/24 15:30:51;;;;;;;;;;;;;;;;;;2217549;59;1608;-80
2023/11/24 15:33:48;;;;;;;;;;;;;;;;;;2216755;59;2065;-80
2023/11/24 15:36:26;;;;;;;;;;;;;;;;;;2212388;59;1876;-80
2023/11/24 15:39:00;;;;;;;;;;;;;;;;;;2215876;59;1638;-80
2023/11/24 15:41:45;;;;;;;;;;;;;;;;;;2216306;59;1660;-80
2023/11/24 15:44:24;;;;;;;;;;;;;;;;;;2212051;54;2137;-21
2023/11/24 15:47:10;;;;;;;;;;;;;;;;;;2209398;59;2000;-20
2023/11/24 15:49:40;;;;;;;;;;;;;;;;;;2205016;59;1883;-18
2023/11/24 15:52:12;;;;;;;;;;;;;;;;;;2208942;67;2219;-19
2023/11/24 15:54:43;;;;;;;;;;;;;;;;;;2209496;59;3289;-19
2023/11/24 15:57:13;;;;;;;;;;;;;;;;;;2208868;67;2347;-21
2023/11/24 15:59:47;;;;;;;;;;;;;;;;;;2209968;59;2679;-18
2023/11/24 16:02:25;;;;;;;;;;;;;;;;;;2205494;59;2370;-19
2023/11/24 16:04:58;;;;;;;;;;;;;;;;;;2209235;59;1804;-19
2023/11/24 16:07:32;;;;;;;;;;;;;;;;;;2209351;59;2528;-19
2023/11/24 16:10:13;;;;;;;;;;;;;;;;;;2209704;59;1613;-19
2023/11/24 16:12:48;;;;;;;;;;;;;;;;;;2209506;67;1961;-20
2023/11/24 16:15:21;;;;;;;;;;;;;;;;;;2208611;59;1873;-19
2023/11/24 16:17:53;;;;;;;;;;;;;;;;;;2208862;59;1876;-19
2023/11/24 16:20:23;;;;;;;;;;;;;;;;;;2207233;67;2415;-19
2023/11/24 16:22:54;;;;;;;;;;;;;;;;;;2209653;67;1937;-20
2023/11/24 16:25:24;;;;;;;;;;;;;;;;;;2205032;59;2297;-19
2023/11/24 16:27:55;;;;;;;;;;;;;;;;;;2210358;59;2100;-19
2023/11/24 16:30:25;;;;;;;;;;;;;;;;;;2206151;59;2371;-20
2023/11/24 16:32:56;;;;;;;;;;;;;;;;;;2211046;59;1719;-21
2023/11/24 16:35:27;;;;;;;;;;;;;;;;;;2209866;59;2282;-20
2023/11/24 16:37:57;;;;;;;;;;;;;;;;;;2209301;67;2416;-20
2023/11/24 16:40:28;;;;;;;;;;;;;;;;;;2209399;59;2329;-20
2023/11/24 16:43:00;;;;;;;;;;;;;;;;;;2207587;59;1937;-20
2023/11/24 16:45:30;;;;;;;;;;;;;;;;;;2209856;59;1810;-17
2023/11/24 16:48:00;;;;;;;;;;;;;;;;;;2210654;67;1826;-18
2023/11/24 16:50:32;;;;;;;;;;;;;;;;;;2209608;59;2209;-19
2023/11/24 16:53:04;;;;;;;;;;;;;;;;;;2211364;59;2222;-19
2023/11/24 16:55:35;;;;;;;;;;;;;;;;;;2208649;59;3140;-17
2023/11/24 16:58:06;;;;;;;;;;;;;;;;;;2210131;59;1795;-16
2023/11/24 17:00:38;;;;;;;;;;;;;;;;;;2209060;67;2675;-16
2023/11/24 17:03:10;;;;;;;;;;;;;;;;;;2209835;59;1996;-17
2023/11/24 17:05:41;;;;;;;;;;;;;;;;;;2209635;67;2317;-17
2023/11/24 17:08:11;;;;;;;;;;;;;;;;;;2208885;59;2299;-17
2023/11/24 17:10:42;;;;;;;;;;;;;;;;;;2208250;59;2524;-17
2023/11/24 17:13:13;;;;;;;;;;;;;;;;;;2204724;59;3445;-15
2023/11/24 17:15:48;;;;;;;;;;;;;;;;;;2205004;59;2129;-17
2023/11/24 17:18:21;;;;;;;;;;;;;;;;;;2207416;59;2231;-17
2023/11/24 17:20:52;;;;;;;;;;;;;;;;;;2208838;59;2456;-16
2023/11/24 17:23:24;;;;;;;;;;;;;;;;;;2208175;59;2189;-17
2023/11/24 17:25:55;;;;;;;;;;;;;;;;;;2207211;67;1881;-17
2023/11/24 17:28:25;;;;;;;;;;;;;;;;;;2207999;59;2083;-17
2023/11/24 17:30:56;;;;;;;;;;;;;;;;;;2209399;67;2771;-17
2023/11/24 17:33:26;;;;;;;;;;;;;;;;;;2208289;59;1906;-16
2023/11/24 17:35:56;;;;;;;;;;;;;;;;;;2205718;60;1641;-17
2023/11/24 17:38:27;;;;;;;;;;;;;;;;;;2204525;59;1997;-17